sensor_id;sensor_type;location;lat;lon;timestamp;pressure;altitude;pressure_sealevel;temperature;humidity
79461;BME280;68929;42.666;23.324;2023-05-10T00:01:39;94801.56;;;13.18;70.86
79461;BME280;68929;42.666;23.324;2023-05-10T00:04:05;94782.44;;;13.27;69.24
79461;BME280;68929;42.666;23.324;2023-05-10T00:06:31;94776.88;;;13.29;67.50
79461;BME280;68929;42.666;23.324;2023-05-10T00:08:56;94771.47;;;12.76;70.09
79461;BME280;68929;42.666;23.324;2023-05-10T00:11:22;94777.38;;;12.78;71.02
79461;BME280;68929;42.666;23.324;2023-05-10T00:13:47;94770.53;;;13.18;70.42
79461;BME280;68929;42.666;23.324;2023-05-10T00:16:13;94761.28;;;12.91;69.21
79461;BME280;68929;42.666;23.324;2023-05-10T00:18:39;94765.00;;;12.72;71.04
79461;BME280;68929;42.666;23.324;2023-05-10T00:21:04;94781.88;;;12.41;71.24
79461;BME280;68929;42.666;23.324;2023-05-10T00:23:30;94756.84;;;12.37;71.81
79461;BME280;68929;42.666;23.324;2023-05-10T00:25:56;94753.09;;;12.45;71.75
79461;BME280;68929;42.666;23.324;2023-05-10T00:28:21;94764.44;;;12.16;73.27
79461;BME280;68929;42.666;23.324;2023-05-10T00:30:47;94761.03;;;11.90;72.27
79461;BME280;68929;42.666;23.324;2023-05-10T00:33:12;94771.03;;;11.88;71.91
79461;BME280;68929;42.666;23.324;2023-05-10T00:35:38;94765.75;;;12.07;71.18
79461;BME280;68929;42.666;23.324;2023-05-10T00:38:03;94752.50;;;12.25;72.14
79461;BME280;68929;42.666;23.324;2023-05-10T00:40:29;94771.63;;;11.90;72.19
79461;BME280;68929;42.666;23.324;2023-05-10T00:42:56;94754.84;;;11.96;73.19
79461;BME280;68929;42.666;23.324;2023-05-10T00:45:22;94732.19;;;11.82;73.03
79461;BME280;68929;42.666;23.324;2023-05-10T00:47:47;94743.97;;;12.04;73.07
79461;BME280;68929;42.666;23.324;2023-05-10T00:50:14;94762.44;;;11.68;73.28
79461;BME280;68929;42.666;23.324;2023-05-10T00:52:40;94757.56;;;11.65;74.66
79461;BME280;68929;42.666;23.324;2023-05-10T00:55:06;94760.91;;;12.22;72.22
79461;BME280;68929;42.666;23.324;2023-05-10T00:57:32;94756.31;;;12.29;71.26
79461;BME280;68929;42.666;23.324;2023-05-10T00:59:58;94745.38;;;12.25;71.83
79461;BME280;68929;42.666;23.324;2023-05-10T01:02:24;94743.25;;;12.16;71.74
79461;BME280;68929;42.666;23.324;2023-05-10T01:04:50;94745.63;;;11.81;72.08
79461;BME280;68929;42.666;23.324;2023-05-10T01:07:16;94736.94;;;11.49;71.63
79461;BME280;68929;42.666;23.324;2023-05-10T01:09:42;94739.31;;;12.00;72.78
79461;BME280;68929;42.666;23.324;2023-05-10T01:12:07;94744.56;;;12.07;72.07
79461;BME280;68929;42.666;23.324;2023-05-10T01:14:34;94759.78;;;12.29;70.70
79461;BME280;68929;42.666;23.324;2023-05-10T01:17:01;94744.72;;;12.30;70.76
79461;BME280;68929;42.666;23.324;2023-05-10T01:19:29;94755.56;;;12.58;71.51
79461;BME280;68929;42.666;23.324;2023-05-10T01:22:12;94746.78;;;12.28;71.06
79461;BME280;68929;42.666;23.324;2023-05-10T01:35:47;94714.66;;;11.81;72.00
79461;BME280;68929;42.666;23.324;2023-05-10T01:41:17;94740.09;;;11.33;71.86
79461;BME280;68929;42.666;23.324;2023-05-10T01:44:24;94722.66;;;11.50;73.18
79461;BME280;68929;42.666;23.324;2023-05-10T01:47:02;94723.53;;;11.44;70.19
79461;BME280;68929;42.666;23.324;2023-05-10T01:49:32;94688.69;;;10.67;73.08
79461;BME280;68929;42.666;23.324;2023-05-10T01:52:06;94704.56;;;10.67;74.66
79461;BME280;68929;42.666;23.324;2023-05-10T01:54:35;94731.44;;;10.64;73.79
79461;BME280;68929;42.666;23.324;2023-05-10T01:57:05;94726.50;;;10.74;74.30
79461;BME280;68929;42.666;23.324;2023-05-10T01:59:34;94712.03;;;10.45;73.42
79461;BME280;68929;42.666;23.324;2023-05-10T02:02:01;94729.72;;;10.76;72.95
79461;BME280;68929;42.666;23.324;2023-05-10T02:04:28;94714.69;;;10.76;74.01
79461;BME280;68929;42.666;23.324;2023-05-10T02:06:55;94723.03;;;11.04;71.98
79461;BME280;68929;42.666;23.324;2023-05-10T02:09:21;94718.03;;;10.59;72.62
79461;BME280;68929;42.666;23.324;2023-05-10T02:11:47;94715.03;;;10.49;72.23
79461;BME280;68929;42.666;23.324;2023-05-10T02:14:15;94706.44;;;10.15;71.67
79461;BME280;68929;42.666;23.324;2023-05-10T02:16:42;94723.31;;;10.14;72.66
79461;BME280;68929;42.666;23.324;2023-05-10T02:19:10;94718.44;;;10.56;70.85
79461;BME280;68929;42.666;23.324;2023-05-10T02:21:38;94733.19;;;10.76;70.62
79461;BME280;68929;42.666;23.324;2023-05-10T02:24:05;94734.03;;;10.32;70.33
79461;BME280;68929;42.666;23.324;2023-05-10T02:26:31;94711.75;;;10.02;68.55
79461;BME280;68929;42.666;23.324;2023-05-10T02:29:01;94732.66;;;10.17;68.92
79461;BME280;68929;42.666;23.324;2023-05-10T02:31:30;94715.91;;;9.59;71.20
79461;BME280;68929;42.666;23.324;2023-05-10T02:33:56;94725.25;;;9.55;71.41
79461;BME280;68929;42.666;23.324;2023-05-10T02:36:23;94714.31;;;9.25;68.03
79461;BME280;68929;42.666;23.324;2023-05-10T02:38:51;94708.59;;;9.61;68.63
79461;BME280;68929;42.666;23.324;2023-05-10T02:41:20;94705.31;;;9.72;70.73
79461;BME280;68929;42.666;23.324;2023-05-10T02:43:50;94727.28;;;9.53;68.34
79461;BME280;68929;42.666;23.324;2023-05-10T02:46:17;94711.41;;;9.66;71.11
79461;BME280;68929;42.666;23.324;2023-05-10T02:48:42;94717.28;;;9.81;70.13
79461;BME280;68929;42.666;23.324;2023-05-10T02:51:08;94731.91;;;9.90;73.38
79461;BME280;68929;42.666;23.324;2023-05-10T02:53:36;94708.91;;;9.97;67.68
79461;BME280;68929;42.666;23.324;2023-05-10T02:56:13;94694.31;;;9.88;68.52
79461;BME280;68929;42.666;23.324;2023-05-10T02:58:39;94707.41;;;9.57;71.44
79461;BME280;68929;42.666;23.324;2023-05-10T03:01:05;94723.59;;;9.80;71.44
79461;BME280;68929;42.666;23.324;2023-05-10T03:03:32;94733.31;;;9.86;70.90
79461;BME280;68929;42.666;23.324;2023-05-10T03:05:58;94718.91;;;9.82;70.26
79461;BME280;68929;42.666;23.324;2023-05-10T03:08:24;94723.09;;;10.09;67.42
79461;BME280;68929;42.666;23.324;2023-05-10T03:11:09;94715.47;;;9.75;70.72
79461;BME280;68929;42.666;23.324;2023-05-10T03:13:47;94707.31;;;9.83;68.85
79461;BME280;68929;42.666;23.324;2023-05-10T03:16:16;94727.25;;;9.73;67.78
79461;BME280;68929;42.666;23.324;2023-05-10T03:18:54;94724.59;;;9.79;69.24
79461;BME280;68929;42.666;23.324;2023-05-10T03:21:22;94728.00;;;9.99;65.65
79461;BME280;68929;42.666;23.324;2023-05-10T03:24:05;94726.19;;;9.93;69.07
79461;BME280;68929;42.666;23.324;2023-05-10T03:26:32;94723.19;;;9.70;69.63
79461;BME280;68929;42.666;23.324;2023-05-10T03:28:58;94723.97;;;9.90;68.89
79461;BME280;68929;42.666;23.324;2023-05-10T03:31:24;94739.84;;;9.77;68.46
79461;BME280;68929;42.666;23.324;2023-05-10T03:33:51;94737.19;;;9.90;70.78
79461;BME280;68929;42.666;23.324;2023-05-10T03:36:18;94742.59;;;10.21;67.26
79461;BME280;68929;42.666;23.324;2023-05-10T03:38:43;94735.72;;;10.07;68.12
79461;BME280;68929;42.666;23.324;2023-05-10T03:41:09;94751.09;;;10.36;67.39
79461;BME280;68929;42.666;23.324;2023-05-10T03:43:34;94723.41;;;10.39;67.24
79461;BME280;68929;42.666;23.324;2023-05-10T03:46:03;94738.97;;;9.96;65.99
79461;BME280;68929;42.666;23.324;2023-05-10T03:48:28;94753.63;;;9.92;66.60
79461;BME280;68929;42.666;23.324;2023-05-10T03:50:57;94733.75;;;9.77;64.00
79461;BME280;68929;42.666;23.324;2023-05-10T03:53:22;94739.88;;;9.31;68.51
79461;BME280;68929;42.666;23.324;2023-05-10T03:55:48;94765.25;;;9.65;68.27
79461;BME280;68929;42.666;23.324;2023-05-10T03:58:14;94759.44;;;10.20;66.20
79461;BME280;68929;42.666;23.324;2023-05-10T04:00:40;94765.16;;;10.24;62.45
79461;BME280;68929;42.666;23.324;2023-05-10T04:03:09;94766.28;;;9.51;67.69
79461;BME280;68929;42.666;23.324;2023-05-10T04:05:35;94760.06;;;10.22;66.80
79461;BME280;68929;42.666;23.324;2023-05-10T04:08:01;94741.41;;;10.04;66.62
79461;BME280;68929;42.666;23.324;2023-05-10T04:10:26;94768.19;;;10.27;67.29
79461;BME280;68929;42.666;23.324;2023-05-10T04:12:51;94748.66;;;10.28;66.11
79461;BME280;68929;42.666;23.324;2023-05-10T04:15:17;94748.88;;;10.20;65.52
79461;BME280;68929;42.666;23.324;2023-05-10T04:17:42;94765.28;;;10.35;63.66
79461;BME280;68929;42.666;23.324;2023-05-10T04:20:08;94763.63;;;10.85;64.44
79461;BME280;68929;42.666;23.324;2023-05-10T04:22:33;94742.69;;;10.84;64.49
79461;BME280;68929;42.666;23.324;2023-05-10T04:24:59;94756.94;;;10.83;65.74
79461;BME280;68929;42.666;23.324;2023-05-10T04:27:24;94747.22;;;11.08;65.85
79461;BME280;68929;42.666;23.324;2023-05-10T04:29:50;94768.19;;;11.09;64.86
79461;BME280;68929;42.666;23.324;2023-05-10T04:32:15;94775.22;;;10.47;67.18
79461;BME280;68929;42.666;23.324;2023-05-10T04:34:43;94746.59;;;10.75;61.40
79461;BME280;68929;42.666;23.324;2023-05-10T04:37:08;94776.34;;;10.13;64.21
79461;BME280;68929;42.666;23.324;2023-05-10T04:39:34;94776.91;;;10.34;66.67
79461;BME280;68929;42.666;23.324;2023-05-10T04:42:00;94767.28;;;10.47;67.06
79461;BME280;68929;42.666;23.324;2023-05-10T04:44:28;94776.03;;;10.85;65.16
79461;BME280;68929;42.666;23.324;2023-05-10T04:46:53;94764.69;;;10.78;62.51
79461;BME280;68929;42.666;23.324;2023-05-10T04:49:18;94753.09;;;10.79;63.82
79461;BME280;68929;42.666;23.324;2023-05-10T04:51:44;94767.88;;;10.93;63.69
79461;BME280;68929;42.666;23.324;2023-05-10T04:54:09;94774.38;;;10.53;64.80
79461;BME280;68929;42.666;23.324;2023-05-10T04:56:41;94754.19;;;10.65;67.07
79461;BME280;68929;42.666;23.324;2023-05-10T04:59:07;94755.97;;;10.71;66.60
79461;BME280;68929;42.666;23.324;2023-05-10T05:01:32;94751.13;;;11.05;66.09
79461;BME280;68929;42.666;23.324;2023-05-10T05:03:58;94743.41;;;11.53;65.44
79461;BME280;68929;42.666;23.324;2023-05-10T05:06:33;94749.44;;;11.11;62.39
79461;BME280;68929;42.666;23.324;2023-05-10T05:08:58;94770.09;;;11.27;62.95
79461;BME280;68929;42.666;23.324;2023-05-10T05:11:23;94750.88;;;11.38;64.71
79461;BME280;68929;42.666;23.324;2023-05-10T05:13:50;94765.72;;;11.08;65.87
79461;BME280;68929;42.666;23.324;2023-05-10T05:16:24;94750.75;;;11.26;66.29
79461;BME280;68929;42.666;23.324;2023-05-10T05:18:50;94761.88;;;12.09;63.26
79461;BME280;68929;42.666;23.324;2023-05-10T05:21:17;94767.66;;;11.50;61.92
79461;BME280;68929;42.666;23.324;2023-05-10T05:23:42;94777.25;;;11.51;64.16
79461;BME280;68929;42.666;23.324;2023-05-10T05:26:08;94769.53;;;11.43;61.89
79461;BME280;68929;42.666;23.324;2023-05-10T05:28:34;94760.97;;;11.48;63.00
79461;BME280;68929;42.666;23.324;2023-05-10T05:31:05;94758.38;;;11.66;63.23
79461;BME280;68929;42.666;23.324;2023-05-10T05:33:31;94776.47;;;11.44;64.09
79461;BME280;68929;42.666;23.324;2023-05-10T05:35:56;94747.03;;;11.09;66.56
79461;BME280;68929;42.666;23.324;2023-05-10T05:38:21;94774.97;;;11.30;64.34
79461;BME280;68929;42.666;23.324;2023-05-10T05:40:47;94774.63;;;11.20;64.77
79461;BME280;68929;42.666;23.324;2023-05-10T05:43:13;94794.75;;;10.90;67.48
79461;BME280;68929;42.666;23.324;2023-05-10T05:45:38;94773.53;;;10.96;67.37
79461;BME280;68929;42.666;23.324;2023-05-10T05:48:04;94796.63;;;11.14;68.25
79461;BME280;68929;42.666;23.324;2023-05-10T05:50:29;94798.19;;;11.28;65.33
79461;BME280;68929;42.666;23.324;2023-05-10T05:52:55;94784.59;;;11.49;65.89
79461;BME280;68929;42.666;23.324;2023-05-10T05:55:26;94800.88;;;11.46;66.77
79461;BME280;68929;42.666;23.324;2023-05-10T05:57:51;94800.72;;;11.41;67.85
79461;BME280;68929;42.666;23.324;2023-05-10T06:00:20;94815.16;;;11.45;65.30
79461;BME280;68929;42.666;23.324;2023-05-10T06:02:47;94811.84;;;11.50;66.94
79461;BME280;68929;42.666;23.324;2023-05-10T06:05:13;94796.88;;;11.37;64.93
79461;BME280;68929;42.666;23.324;2023-05-10T06:07:39;94782.38;;;11.15;65.76
79461;BME280;68929;42.666;23.324;2023-05-10T06:10:07;94796.09;;;11.37;66.63
79461;BME280;68929;42.666;23.324;2023-05-10T06:12:33;94805.84;;;11.36;66.23
79461;BME280;68929;42.666;23.324;2023-05-10T06:14:59;94795.28;;;11.36;65.40
79461;BME280;68929;42.666;23.324;2023-05-10T06:17:24;94815.09;;;11.20;66.51
79461;BME280;68929;42.666;23.324;2023-05-10T06:19:50;94779.13;;;11.13;67.30
79461;BME280;68929;42.666;23.324;2023-05-10T06:22:15;94810.38;;;11.29;68.04
79461;BME280;68929;42.666;23.324;2023-05-10T06:24:41;94792.34;;;10.82;66.61
79461;BME280;68929;42.666;23.324;2023-05-10T06:27:06;94788.56;;;11.02;66.49
79461;BME280;68929;42.666;23.324;2023-05-10T06:29:32;94797.59;;;12.00;64.08
79461;BME280;68929;42.666;23.324;2023-05-10T06:31:57;94815.41;;;11.68;66.50
79461;BME280;68929;42.666;23.324;2023-05-10T06:34:24;94806.47;;;11.87;64.91
79461;BME280;68929;42.666;23.324;2023-05-10T06:36:49;94798.78;;;12.04;63.23
79461;BME280;68929;42.666;23.324;2023-05-10T06:39:14;94809.34;;;11.30;65.19
79461;BME280;68929;42.666;23.324;2023-05-10T06:41:45;94806.19;;;11.46;63.82
79461;BME280;68929;42.666;23.324;2023-05-10T06:44:11;94818.72;;;11.57;64.42
79461;BME280;68929;42.666;23.324;2023-05-10T06:46:36;94800.88;;;11.46;64.22
79461;BME280;68929;42.666;23.324;2023-05-10T06:49:11;94789.03;;;11.55;62.27
79461;BME280;68929;42.666;23.324;2023-05-10T06:51:37;94806.75;;;11.79;64.06
79461;BME280;68929;42.666;23.324;2023-05-10T06:54:02;94815.19;;;11.94;64.07
79461;BME280;68929;42.666;23.324;2023-05-10T06:56:28;94818.13;;;11.86;62.37
79461;BME280;68929;42.666;23.324;2023-05-10T06:58:53;94818.13;;;11.86;64.55
79461;BME280;68929;42.666;23.324;2023-05-10T07:01:19;94797.78;;;12.23;60.92
79461;BME280;68929;42.666;23.324;2023-05-10T07:03:45;94812.38;;;11.89;62.06
79461;BME280;68929;42.666;23.324;2023-05-10T07:06:12;94805.22;;;11.65;63.68
79461;BME280;68929;42.666;23.324;2023-05-10T07:08:37;94795.19;;;11.49;64.76
79461;BME280;68929;42.666;23.324;2023-05-10T07:11:15;94823.59;;;11.60;61.87
79461;BME280;68929;42.666;23.324;2023-05-10T07:13:40;94820.91;;;11.91;62.06
79461;BME280;68929;42.666;23.324;2023-05-10T07:16:09;94833.16;;;11.92;61.18
79461;BME280;68929;42.666;23.324;2023-05-10T07:18:35;94819.63;;;12.00;62.02
79461;BME280;68929;42.666;23.324;2023-05-10T07:21:01;94793.69;;;11.84;62.22
79461;BME280;68929;42.666;23.324;2023-05-10T07:23:26;94757.81;;;12.25;61.29
79461;BME280;68929;42.666;23.324;2023-05-10T07:25:52;94840.72;;;12.50;61.00
79461;BME280;68929;42.666;23.324;2023-05-10T07:28:22;94822.75;;;12.16;62.65
79461;BME280;68929;42.666;23.324;2023-05-10T07:30:48;94825.97;;;12.18;60.89
79461;BME280;68929;42.666;23.324;2023-05-10T07:33:14;94837.53;;;11.80;62.62
79461;BME280;68929;42.666;23.324;2023-05-10T07:35:39;94821.31;;;11.95;63.68
79461;BME280;68929;42.666;23.324;2023-05-10T07:38:05;94838.19;;;12.19;62.10
79461;BME280;68929;42.666;23.324;2023-05-10T07:40:35;94821.16;;;12.51;61.96
79461;BME280;68929;42.666;23.324;2023-05-10T07:43:01;94846.19;;;12.73;58.28
79461;BME280;68929;42.666;23.324;2023-05-10T07:45:27;94823.94;;;11.70;61.00
79461;BME280;68929;42.666;23.324;2023-05-10T07:47:56;94825.69;;;11.52;62.01
79461;BME280;68929;42.666;23.324;2023-05-10T07:50:21;94834.34;;;11.65;61.64
79461;BME280;68929;42.666;23.324;2023-05-10T07:52:47;94846.47;;;12.04;60.09
79461;BME280;68929;42.666;23.324;2023-05-10T07:55:13;94841.31;;;12.34;61.50
79461;BME280;68929;42.666;23.324;2023-05-10T07:57:38;94817.84;;;11.94;58.39
79461;BME280;68929;42.666;23.324;2023-05-10T08:00:05;94838.81;;;11.40;60.20
79461;BME280;68929;42.666;23.324;2023-05-10T08:02:31;94836.41;;;11.32;62.31
79461;BME280;68929;42.666;23.324;2023-05-10T08:04:56;94811.38;;;11.59;62.59
79461;BME280;68929;42.666;23.324;2023-05-10T08:07:24;94847.31;;;11.49;63.15
79461;BME280;68929;42.666;23.324;2023-05-10T08:09:49;94834.59;;;11.33;63.59
79461;BME280;68929;42.666;23.324;2023-05-10T08:12:20;94855.09;;;11.37;63.74
79461;BME280;68929;42.666;23.324;2023-05-10T08:14:45;94838.91;;;11.83;60.25
79461;BME280;68929;42.666;23.324;2023-05-10T08:17:10;94816.16;;;11.75;61.92
79461;BME280;68929;42.666;23.324;2023-05-10T08:19:36;94838.53;;;12.47;60.96
79461;BME280;68929;42.666;23.324;2023-05-10T08:22:01;94836.25;;;12.87;61.28
79461;BME280;68929;42.666;23.324;2023-05-10T08:24:30;94831.88;;;12.38;60.10
79461;BME280;68929;42.666;23.324;2023-05-10T08:26:55;94837.31;;;12.25;61.27
79461;BME280;68929;42.666;23.324;2023-05-10T08:29:20;94849.94;;;12.47;61.58
79461;BME280;68929;42.666;23.324;2023-05-10T08:31:46;94860.19;;;12.62;61.55
79461;BME280;68929;42.666;23.324;2023-05-10T08:34:11;94844.78;;;12.52;62.90
79461;BME280;68929;42.666;23.324;2023-05-10T08:36:36;94851.16;;;12.27;63.19
79461;BME280;68929;42.666;23.324;2023-05-10T08:39:02;94859.91;;;11.84;62.88
79461;BME280;68929;42.666;23.324;2023-05-10T08:41:28;94844.75;;;11.60;64.45
79461;BME280;68929;42.666;23.324;2023-05-10T08:43:56;94847.53;;;11.78;66.07
79461;BME280;68929;42.666;23.324;2023-05-10T08:46:22;94843.69;;;11.74;64.37
79461;BME280;68929;42.666;23.324;2023-05-10T08:48:49;94844.09;;;11.96;64.45
79461;BME280;68929;42.666;23.324;2023-05-10T08:51:18;94857.28;;;12.27;64.69
79461;BME280;68929;42.666;23.324;2023-05-10T08:53:45;94861.75;;;12.27;62.96
79461;BME280;68929;42.666;23.324;2023-05-10T08:56:11;94860.47;;;12.36;64.85
79461;BME280;68929;42.666;23.324;2023-05-10T08:58:37;94862.84;;;12.19;65.77
79461;BME280;68929;42.666;23.324;2023-05-10T09:01:06;94842.16;;;11.85;65.53
79461;BME280;68929;42.666;23.324;2023-05-10T09:03:32;94847.28;;;12.04;65.70
79461;BME280;68929;42.666;23.324;2023-05-10T09:05:58;94846.22;;;11.87;65.12
79461;BME280;68929;42.666;23.324;2023-05-10T09:08:27;94852.81;;;11.78;65.70
79461;BME280;68929;42.666;23.324;2023-05-10T09:11:00;94861.75;;;11.84;65.73
79461;BME280;68929;42.666;23.324;2023-05-10T09:13:32;94841.38;;;11.53;64.37
79461;BME280;68929;42.666;23.324;2023-05-10T09:15:57;94862.00;;;12.00;63.80
79461;BME280;68929;42.666;23.324;2023-05-10T09:18:28;94839.06;;;11.63;65.20
79461;BME280;68929;42.666;23.324;2023-05-10T09:20:54;94847.69;;;11.83;64.96
79461;BME280;68929;42.666;23.324;2023-05-10T09:23:19;94844.75;;;11.67;64.97
79461;BME280;68929;42.666;23.324;2023-05-10T09:25:45;94814.72;;;11.48;65.60
79461;BME280;68929;42.666;23.324;2023-05-10T09:28:14;94854.06;;;12.00;64.64
79461;BME280;68929;42.666;23.324;2023-05-10T09:30:39;94792.22;;;11.64;63.85
79461;BME280;68929;42.666;23.324;2023-05-10T09:33:05;94836.94;;;12.03;65.38
79461;BME280;68929;42.666;23.324;2023-05-10T09:35:32;94762.38;;;11.50;65.37
79461;BME280;68929;42.666;23.324;2023-05-10T09:38:04;94852.91;;;12.57;63.22
79461;BME280;68929;42.666;23.324;2023-05-10T09:40:30;94829.34;;;12.49;62.14
79461;BME280;68929;42.666;23.324;2023-05-10T09:43:03;94855.03;;;12.49;61.99
79461;BME280;68929;42.666;23.324;2023-05-10T09:45:30;94854.97;;;12.55;62.44
79461;BME280;68929;42.666;23.324;2023-05-10T09:47:56;94850.47;;;12.74;61.77
79461;BME280;68929;42.666;23.324;2023-05-10T09:50:23;94843.97;;;12.52;64.10
79461;BME280;68929;42.666;23.324;2023-05-10T09:52:55;94852.66;;;13.13;60.38
79461;BME280;68929;42.666;23.324;2023-05-10T09:55:22;94838.34;;;12.96;59.26
79461;BME280;68929;42.666;23.324;2023-05-10T09:57:49;94824.19;;;13.02;61.29
79461;BME280;68929;42.666;23.324;2023-05-10T10:00:23;94828.06;;;12.88;60.04
79461;BME280;68929;42.666;23.324;2023-05-10T10:02:59;94825.41;;;12.88;61.96
79461;BME280;68929;42.666;23.324;2023-05-10T10:05:32;94819.09;;;13.48;58.84
79461;BME280;68929;42.666;23.324;2023-05-10T10:08:03;94824.97;;;13.09;59.58
79461;BME280;68929;42.666;23.324;2023-05-10T10:10:35;94826.03;;;13.20;60.62
79461;BME280;68929;42.666;23.324;2023-05-10T10:13:05;94820.97;;;13.59;59.22
79461;BME280;68929;42.666;23.324;2023-05-10T10:15:32;94811.25;;;13.53;60.30
79461;BME280;68929;42.666;23.324;2023-05-10T10:17:58;94799.91;;;13.46;60.88
79461;BME280;68929;42.666;23.324;2023-05-10T10:20:33;94803.28;;;12.94;58.59
79461;BME280;68929;42.666;23.324;2023-05-10T10:22:59;94797.63;;;12.91;61.84
79461;BME280;68929;42.666;23.324;2023-05-10T10:25:26;94817.97;;;13.68;59.53
79461;BME280;68929;42.666;23.324;2023-05-10T10:35:49;94815.22;;;13.03;61.84
79461;BME280;68929;42.666;23.324;2023-05-10T10:38:15;94822.59;;;13.01;60.90
79461;BME280;68929;42.666;23.324;2023-05-10T10:40:41;94820.94;;;13.00;59.39
79461;BME280;68929;42.666;23.324;2023-05-10T10:43:27;94821.97;;;13.17;60.21
79461;BME280;68929;42.666;23.324;2023-05-10T10:46:14;94822.56;;;13.19;58.27
79461;BME280;68929;42.666;23.324;2023-05-10T10:48:50;94798.84;;;13.06;59.03
79461;BME280;68929;42.666;23.324;2023-05-10T10:51:37;94832.75;;;13.22;61.24
79461;BME280;68929;42.666;23.324;2023-05-10T10:54:09;94786.78;;;12.92;59.84
79461;BME280;68929;42.666;23.324;2023-05-10T10:56:35;94813.97;;;13.35;59.14
79461;BME280;68929;42.666;23.324;2023-05-10T10:59:01;94815.81;;;13.35;57.70
79461;BME280;68929;42.666;23.324;2023-05-10T11:01:34;94820.09;;;13.36;59.24
79461;BME280;68929;42.666;23.324;2023-05-10T11:06:39;94815.75;;;13.53;59.59
79461;BME280;68929;42.666;23.324;2023-05-10T11:09:07;94818.78;;;13.68;56.74
79461;BME280;68929;42.666;23.324;2023-05-10T11:11:36;94820.06;;;13.66;58.49
79461;BME280;68929;42.666;23.324;2023-05-10T11:14:10;94799.38;;;13.68;58.69
79461;BME280;68929;42.666;23.324;2023-05-10T11:16:42;94814.47;;;14.43;56.90
79461;BME280;68929;42.666;23.324;2023-05-10T11:19:15;94805.13;;;13.64;57.99
79461;BME280;68929;42.666;23.324;2023-05-10T11:21:49;94798.59;;;13.79;58.39
79461;BME280;68929;42.666;23.324;2023-05-10T11:24:19;94817.66;;;13.87;55.63
79461;BME280;68929;42.666;23.324;2023-05-10T11:26:45;94811.03;;;13.25;57.86
79461;BME280;68929;42.666;23.324;2023-05-10T11:29:12;94812.94;;;13.36;58.28
79461;BME280;68929;42.666;23.324;2023-05-10T11:31:45;94824.19;;;13.20;60.03
79461;BME280;68929;42.666;23.324;2023-05-10T11:34:22;94781.31;;;12.87;58.54
79461;BME280;68929;42.666;23.324;2023-05-10T11:36:51;94829.19;;;13.70;58.90
79461;BME280;68929;42.666;23.324;2023-05-10T11:39:28;94825.47;;;13.59;57.80
79461;BME280;68929;42.666;23.324;2023-05-10T11:41:54;94821.94;;;14.00;57.91
79461;BME280;68929;42.666;23.324;2023-05-10T11:44:19;94810.25;;;13.66;58.59
79461;BME280;68929;42.666;23.324;2023-05-10T11:46:45;94827.72;;;13.97;58.42
79461;BME280;68929;42.666;23.324;2023-05-10T11:49:11;94828.03;;;13.77;59.44
79461;BME280;68929;42.666;23.324;2023-05-10T11:51:38;94790.75;;;13.01;57.77
79461;BME280;68929;42.666;23.324;2023-05-10T11:54:10;94827.13;;;13.30;58.25
79461;BME280;68929;42.666;23.324;2023-05-10T11:56:39;94821.88;;;13.53;59.92
79461;BME280;68929;42.666;23.324;2023-05-10T11:59:05;94813.06;;;13.41;57.83
79461;BME280;68929;42.666;23.324;2023-05-10T12:01:31;94814.63;;;13.01;59.97
79461;BME280;68929;42.666;23.324;2023-05-10T12:03:58;94797.97;;;12.94;59.33
79461;BME280;68929;42.666;23.324;2023-05-10T12:06:30;94801.66;;;13.11;59.81
79461;BME280;68929;42.666;23.324;2023-05-10T12:08:57;94772.75;;;13.03;59.76
79461;BME280;68929;42.666;23.324;2023-05-10T12:11:27;94810.28;;;12.89;61.38
79461;BME280;68929;42.666;23.324;2023-05-10T12:13:54;94816.09;;;13.15;61.45
79461;BME280;68929;42.666;23.324;2023-05-10T12:16:25;94800.66;;;13.24;61.92
79461;BME280;68929;42.666;23.324;2023-05-10T12:18:55;94811.25;;;13.53;58.92
79461;BME280;68929;42.666;23.324;2023-05-10T12:21:20;94789.63;;;13.38;57.69
79461;BME280;68929;42.666;23.324;2023-05-10T12:23:59;94784.72;;;14.00;57.25
79461;BME280;68929;42.666;23.324;2023-05-10T12:26:38;94797.53;;;13.68;57.18
79461;BME280;68929;42.666;23.324;2023-05-10T12:29:19;94782.00;;;13.42;60.07
79461;BME280;68929;42.666;23.324;2023-05-10T12:32:00;94806.22;;;13.34;59.78
79461;BME280;68929;42.666;23.324;2023-05-10T12:34:38;94797.44;;;13.22;59.91
79461;BME280;68929;42.666;23.324;2023-05-10T12:37:28;94783.31;;;13.51;59.63
79461;BME280;68929;42.666;23.324;2023-05-10T12:39:59;94800.97;;;14.33;57.51
79461;BME280;68929;42.666;23.324;2023-05-10T12:42:25;94781.28;;;14.11;58.30
79461;BME280;68929;42.666;23.324;2023-05-10T12:44:57;94770.66;;;13.99;58.44
79461;BME280;68929;42.666;23.324;2023-05-10T12:47:23;94785.19;;;13.97;58.14
79461;BME280;68929;42.666;23.324;2023-05-10T12:49:48;94791.09;;;14.33;56.28
79461;BME280;68929;42.666;23.324;2023-05-10T12:52:14;94754.91;;;13.51;57.54
79461;BME280;68929;42.666;23.324;2023-05-10T12:54:42;94752.72;;;13.60;58.49
79461;BME280;68929;42.666;23.324;2023-05-10T12:57:09;94756.31;;;13.89;58.13
79461;BME280;68929;42.666;23.324;2023-05-10T12:59:44;94755.81;;;13.45;59.19
79461;BME280;68929;42.666;23.324;2023-05-10T13:02:11;94750.28;;;13.58;58.44
79461;BME280;68929;42.666;23.324;2023-05-10T13:04:37;94766.94;;;14.12;57.94
79461;BME280;68929;42.666;23.324;2023-05-10T13:07:16;94760.47;;;14.08;58.30
79461;BME280;68929;42.666;23.324;2023-05-10T13:09:55;94754.25;;;14.14;58.34
79461;BME280;68929;42.666;23.324;2023-05-10T13:12:20;94760.91;;;14.28;58.54
79461;BME280;68929;42.666;23.324;2023-05-10T13:14:46;94753.75;;;14.17;57.38
79461;BME280;68929;42.666;23.324;2023-05-10T13:17:11;94755.03;;;14.14;57.32
79461;BME280;68929;42.666;23.324;2023-05-10T13:19:38;94757.47;;;14.16;57.91